sensor_id;sensor_type;location;lat;lon;timestamp;P1;durP1;ratioP1;P2;durP2;ratioP2
34317;SDS011;20582;52.196;20.952;2022-08-01T00:00:22;10.75;;;6.70;;
34317;SDS011;20582;52.196;20.952;2022-08-01T00:02:48;9.40;;;5.47;;
34317;SDS011;20582;52.196;20.952;2022-08-01T00:05:14;14.25;;;6.32;;
34317;SDS011;20582;52.196;20.952;2022-08-01T00:07:40;12.88;;;6.10;;
34317;SDS011;20582;52.196;20.952;2022-08-01T00:10:07;11.65;;;5.88;;
34317;SDS011;20582;52.196;20.952;2022-08-01T00:12:34;11.23;;;5.60;;
34317;SDS011;20582;52.196;20.952;2022-08-01T00:15:00;12.52;;;5.85;;
34317;SDS011;20582;52.196;20.952;2022-08-01T00:17:26;9.95;;;5.97;;
34317;SDS011;20582;52.196;20.952;2022-08-01T00:19:52;9.10;;;5.25;;
34317;SDS011;20582;52.196;20.952;2022-08-01T00:22:18;10.55;;;5.50;;
34317;SDS011;20582;52.196;20.952;2022-08-01T00:24:44;13.45;;;5.60;;
34317;SDS011;20582;52.196;20.952;2022-08-01T00:27:10;11.02;;;5.57;;
34317;SDS011;20582;52.196;20.952;2022-08-01T00:29:36;9.98;;;5.53;;
34317;SDS011;20582;52.196;20.952;2022-08-01T00:32:02;11.63;;;6.10;;
34317;SDS011;20582;52.196;20.952;2022-08-01T00:34:28;17.80;;;5.80;;
34317;SDS011;20582;52.196;20.952;2022-08-01T00:36:54;14.40;;;5.93;;
34317;SDS011;20582;52.196;20.952;2022-08-01T00:39:20;12.60;;;6.28;;
34317;SDS011;20582;52.196;20.952;2022-08-01T00:41:46;10.25;;;6.30;;
34317;SDS011;20582;52.196;20.952;2022-08-01T00:44:12;11.65;;;6.07;;
34317;SDS011;20582;52.196;20.952;2022-08-01T00:46:38;11.75;;;7.03;;
34317;SDS011;20582;52.196;20.952;2022-08-01T00:49:04;12.65;;;6.78;;
34317;SDS011;20582;52.196;20.952;2022-08-01T00:51:31;13.70;;;7.00;;
34317;SDS011;20582;52.196;20.952;2022-08-01T00:53:58;12.07;;;7.18;;
34317;SDS011;20582;52.196;20.952;2022-08-01T00:56:25;15.13;;;6.82;;
34317;SDS011;20582;52.196;20.952;2022-08-01T00:58:53;12.90;;;7.30;;
34317;SDS011;20582;52.196;20.952;2022-08-01T01:01:19;16.55;;;7.55;;
34317;SDS011;20582;52.196;20.952;2022-08-01T01:03:51;10.63;;;6.72;;
34317;SDS011;20582;52.196;20.952;2022-08-01T01:08:55;14.98;;;7.13;;
34317;SDS011;20582;52.196;20.952;2022-08-01T01:11:38;13.90;;;7.78;;
34317;SDS011;20582;52.196;20.952;2022-08-01T01:14:08;13.02;;;6.75;;
34317;SDS011;20582;52.196;20.952;2022-08-01T01:16:35;14.50;;;7.20;;
34317;SDS011;20582;52.196;20.952;2022-08-01T01:19:02;10.95;;;7.38;;
34317;SDS011;20582;52.196;20.952;2022-08-01T01:21:35;15.18;;;6.68;;
34317;SDS011;20582;52.196;20.952;2022-08-01T01:24:13;12.43;;;7.38;;
34317;SDS011;20582;52.196;20.952;2022-08-01T01:26:58;13.85;;;7.63;;
34317;SDS011;20582;52.196;20.952;2022-08-01T01:29:31;17.90;;;7.25;;
34317;SDS011;20582;52.196;20.952;2022-08-01T01:32:02;13.93;;;7.45;;
34317;SDS011;20582;52.196;20.952;2022-08-01T01:36:56;17.25;;;7.65;;
34317;SDS011;20582;52.196;20.952;2022-08-01T01:39:24;15.07;;;7.80;;
34317;SDS011;20582;52.196;20.952;2022-08-01T01:41:52;12.60;;;7.35;;
34317;SDS011;20582;52.196;20.952;2022-08-01T01:44:19;18.80;;;8.02;;
34317;SDS011;20582;52.196;20.952;2022-08-01T01:46:45;14.13;;;7.63;;
34317;SDS011;20582;52.196;20.952;2022-08-01T01:49:11;18.35;;;7.28;;
34317;SDS011;20582;52.196;20.952;2022-08-01T01:51:38;16.90;;;7.55;;
34317;SDS011;20582;52.196;20.952;2022-08-01T01:54:04;18.35;;;7.50;;
34317;SDS011;20582;52.196;20.952;2022-08-01T01:56:31;14.63;;;7.72;;
34317;SDS011;20582;52.196;20.952;2022-08-01T01:58:59;15.05;;;7.40;;
34317;SDS011;20582;52.196;20.952;2022-08-01T02:01:27;14.63;;;7.80;;
34317;SDS011;20582;52.196;20.952;2022-08-01T02:03:54;18.70;;;8.05;;
34317;SDS011;20582;52.196;20.952;2022-08-01T02:06:21;13.27;;;7.25;;
34317;SDS011;20582;52.196;20.952;2022-08-01T02:08:49;15.18;;;7.93;;
34317;SDS011;20582;52.196;20.952;2022-08-01T02:11:15;13.85;;;8.20;;
34317;SDS011;20582;52.196;20.952;2022-08-01T02:13:48;16.08;;;8.50;;
34317;SDS011;20582;52.196;20.952;2022-08-01T02:16:15;17.10;;;7.93;;
34317;SDS011;20582;52.196;20.952;2022-08-01T02:18:42;15.55;;;8.10;;
34317;SDS011;20582;52.196;20.952;2022-08-01T02:21:09;14.55;;;8.02;;
34317;SDS011;20582;52.196;20.952;2022-08-01T02:23:37;17.67;;;8.30;;
34317;SDS011;20582;52.196;20.952;2022-08-01T02:26:07;11.57;;;7.65;;
34317;SDS011;20582;52.196;20.952;2022-08-01T02:28:36;13.88;;;8.70;;
34317;SDS011;20582;52.196;20.952;2022-08-01T02:31:04;20.42;;;8.07;;
34317;SDS011;20582;52.196;20.952;2022-08-01T02:33:42;17.88;;;8.75;;
34317;SDS011;20582;52.196;20.952;2022-08-01T02:36:08;14.38;;;8.82;;
34317;SDS011;20582;52.196;20.952;2022-08-01T02:38:37;16.23;;;7.68;;
34317;SDS011;20582;52.196;20.952;2022-08-01T02:41:06;14.68;;;9.00;;
34317;SDS011;20582;52.196;20.952;2022-08-01T02:43:34;16.92;;;8.55;;
34317;SDS011;20582;52.196;20.952;2022-08-01T02:46:01;19.25;;;8.80;;
34317;SDS011;20582;52.196;20.952;2022-08-01T02:48:28;18.10;;;9.45;;
34317;SDS011;20582;52.196;20.952;2022-08-01T02:50:57;17.15;;;8.90;;
34317;SDS011;20582;52.196;20.952;2022-08-01T02:53:23;15.50;;;8.68;;
34317;SDS011;20582;52.196;20.952;2022-08-01T02:55:51;20.60;;;8.80;;
34317;SDS011;20582;52.196;20.952;2022-08-01T02:58:18;17.27;;;9.35;;
34317;SDS011;20582;52.196;20.952;2022-08-01T03:00:46;21.23;;;9.73;;
34317;SDS011;20582;52.196;20.952;2022-08-01T03:03:13;18.80;;;9.23;;
34317;SDS011;20582;52.196;20.952;2022-08-01T03:05:39;15.00;;;8.85;;
34317;SDS011;20582;52.196;20.952;2022-08-01T03:08:06;13.82;;;8.50;;
34317;SDS011;20582;52.196;20.952;2022-08-01T03:10:34;15.15;;;9.70;;
34317;SDS011;20582;52.196;20.952;2022-08-01T03:13:01;16.48;;;9.55;;
34317;SDS011;20582;52.196;20.952;2022-08-01T03:15:29;15.90;;;10.18;;
34317;SDS011;20582;52.196;20.952;2022-08-01T03:17:56;21.10;;;9.52;;
34317;SDS011;20582;52.196;20.952;2022-08-01T03:20:23;19.33;;;10.35;;
34317;SDS011;20582;52.196;20.952;2022-08-01T03:22:50;17.75;;;9.95;;
34317;SDS011;20582;52.196;20.952;2022-08-01T03:25:18;24.77;;;10.13;;
34317;SDS011;20582;52.196;20.952;2022-08-01T03:27:45;20.65;;;10.65;;
34317;SDS011;20582;52.196;20.952;2022-08-01T03:30:13;21.80;;;12.18;;
34317;SDS011;20582;52.196;20.952;2022-08-01T03:32:40;20.75;;;11.90;;
34317;SDS011;20582;52.196;20.952;2022-08-01T03:35:06;20.27;;;12.55;;
34317;SDS011;20582;52.196;20.952;2022-08-01T03:37:42;20.45;;;12.65;;
34317;SDS011;20582;52.196;20.952;2022-08-01T03:42:42;22.27;;;14.73;;
34317;SDS011;20582;52.196;20.952;2022-08-01T03:45:10;24.13;;;15.07;;
34317;SDS011;20582;52.196;20.952;2022-08-01T03:47:37;23.10;;;15.00;;
34317;SDS011;20582;52.196;20.952;2022-08-01T03:50:07;23.45;;;15.02;;
34317;SDS011;20582;52.196;20.952;2022-08-01T03:52:36;27.42;;;15.43;;
34317;SDS011;20582;52.196;20.952;2022-08-01T03:55:04;21.45;;;15.48;;
34317;SDS011;20582;52.196;20.952;2022-08-01T03:57:32;22.80;;;15.75;;
34317;SDS011;20582;52.196;20.952;2022-08-01T03:59:58;20.67;;;15.73;;
34317;SDS011;20582;52.196;20.952;2022-08-01T04:02:26;22.95;;;15.77;;
34317;SDS011;20582;52.196;20.952;2022-08-01T04:04:52;21.88;;;15.30;;
34317;SDS011;20582;52.196;20.952;2022-08-01T04:07:22;21.05;;;15.63;;
34317;SDS011;20582;52.196;20.952;2022-08-01T04:09:49;24.65;;;16.10;;
34317;SDS011;20582;52.196;20.952;2022-08-01T04:12:15;22.45;;;15.63;;
34317;SDS011;20582;52.196;20.952;2022-08-01T04:14:41;21.17;;;14.70;;
34317;SDS011;20582;52.196;20.952;2022-08-01T04:17:07;22.27;;;14.80;;
34317;SDS011;20582;52.196;20.952;2022-08-01T04:19:33;18.15;;;13.82;;
34317;SDS011;20582;52.196;20.952;2022-08-01T04:21:59;18.85;;;13.85;;
34317;SDS011;20582;52.196;20.952;2022-08-01T04:24:25;19.67;;;13.15;;
34317;SDS011;20582;52.196;20.952;2022-08-01T04:26:53;18.80;;;13.07;;
34317;SDS011;20582;52.196;20.952;2022-08-01T04:29:20;19.77;;;12.65;;
34317;SDS011;20582;52.196;20.952;2022-08-01T04:31:48;21.83;;;13.77;;
34317;SDS011;20582;52.196;20.952;2022-08-01T04:34:16;21.85;;;12.57;;
34317;SDS011;20582;52.196;20.952;2022-08-01T04:36:43;16.88;;;12.57;;
34317;SDS011;20582;52.196;20.952;2022-08-01T04:39:09;16.60;;;12.27;;
34317;SDS011;20582;52.196;20.952;2022-08-01T04:41:36;21.65;;;12.88;;
34317;SDS011;20582;52.196;20.952;2022-08-01T04:44:03;22.08;;;12.60;;
34317;SDS011;20582;52.196;20.952;2022-08-01T04:46:29;25.05;;;13.55;;
34317;SDS011;20582;52.196;20.952;2022-08-01T04:48:57;21.17;;;13.38;;
34317;SDS011;20582;52.196;20.952;2022-08-01T04:51:25;25.58;;;15.07;;
34317;SDS011;20582;52.196;20.952;2022-08-01T04:53:51;20.52;;;12.73;;
34317;SDS011;20582;52.196;20.952;2022-08-01T04:56:18;17.63;;;11.13;;
34317;SDS011;20582;52.196;20.952;2022-08-01T04:58:45;15.75;;;11.77;;
34317;SDS011;20582;52.196;20.952;2022-08-01T05:01:11;18.10;;;11.90;;
34317;SDS011;20582;52.196;20.952;2022-08-01T05:03:37;20.50;;;11.57;;
34317;SDS011;20582;52.196;20.952;2022-08-01T05:06:04;24.73;;;12.63;;
34317;SDS011;20582;52.196;20.952;2022-08-01T05:08:30;18.88;;;12.63;;
34317;SDS011;20582;52.196;20.952;2022-08-01T05:10:56;22.23;;;14.07;;
34317;SDS011;20582;52.196;20.952;2022-08-01T05:13:22;20.10;;;15.38;;
34317;SDS011;20582;52.196;20.952;2022-08-01T05:15:48;25.08;;;14.80;;
34317;SDS011;20582;52.196;20.952;2022-08-01T05:18:14;26.27;;;15.02;;
34317;SDS011;20582;52.196;20.952;2022-08-01T05:20:41;19.75;;;14.60;;
34317;SDS011;20582;52.196;20.952;2022-08-01T05:23:07;20.33;;;15.27;;
34317;SDS011;20582;52.196;20.952;2022-08-01T05:25:33;20.88;;;14.02;;
34317;SDS011;20582;52.196;20.952;2022-08-01T05:27:59;20.35;;;14.70;;
34317;SDS011;20582;52.196;20.952;2022-08-01T05:30:25;23.83;;;14.98;;
34317;SDS011;20582;52.196;20.952;2022-08-01T05:32:51;21.50;;;14.57;;
34317;SDS011;20582;52.196;20.952;2022-08-01T05:35:17;19.42;;;13.02;;
34317;SDS011;20582;52.196;20.952;2022-08-01T05:37:43;25.52;;;13.10;;
34317;SDS011;20582;52.196;20.952;2022-08-01T05:40:09;19.77;;;13.02;;
34317;SDS011;20582;52.196;20.952;2022-08-01T05:42:36;16.50;;;12.30;;
34317;SDS011;20582;52.196;20.952;2022-08-01T05:45:02;16.60;;;12.88;;
34317;SDS011;20582;52.196;20.952;2022-08-01T05:47:28;18.85;;;11.48;;
34317;SDS011;20582;52.196;20.952;2022-08-01T05:49:54;19.00;;;12.82;;
34317;SDS011;20582;52.196;20.952;2022-08-01T05:52:20;20.10;;;12.00;;
34317;SDS011;20582;52.196;20.952;2022-08-01T05:54:46;16.17;;;11.77;;
34317;SDS011;20582;52.196;20.952;2022-08-01T05:57:12;18.13;;;12.07;;
34317;SDS011;20582;52.196;20.952;2022-08-01T05:59:38;15.93;;;11.95;;
34317;SDS011;20582;52.196;20.952;2022-08-01T06:02:04;17.08;;;10.98;;
34317;SDS011;20582;52.196;20.952;2022-08-01T06:04:30;16.05;;;10.85;;
34317;SDS011;20582;52.196;20.952;2022-08-01T06:06:56;16.70;;;10.80;;
34317;SDS011;20582;52.196;20.952;2022-08-01T06:09:22;14.35;;;10.75;;
34317;SDS011;20582;52.196;20.952;2022-08-01T06:11:48;13.90;;;10.40;;
34317;SDS011;20582;52.196;20.952;2022-08-01T06:14:14;15.45;;;9.55;;
34317;SDS011;20582;52.196;20.952;2022-08-01T06:16:41;14.68;;;8.75;;
34317;SDS011;20582;52.196;20.952;2022-08-01T06:19:07;14.68;;;8.50;;
34317;SDS011;20582;52.196;20.952;2022-08-01T06:21:32;12.32;;;8.32;;
34317;SDS011;20582;52.196;20.952;2022-08-01T06:23:59;15.30;;;8.38;;
34317;SDS011;20582;52.196;20.952;2022-08-01T06:26:25;16.40;;;8.60;;
34317;SDS011;20582;52.196;20.952;2022-08-01T06:28:51;13.30;;;7.97;;
34317;SDS011;20582;52.196;20.952;2022-08-01T06:31:17;11.43;;;8.23;;
34317;SDS011;20582;52.196;20.952;2022-08-01T06:33:42;9.38;;;6.82;;
34317;SDS011;20582;52.196;20.952;2022-08-01T06:36:08;16.30;;;7.78;;
34317;SDS011;20582;52.196;20.952;2022-08-01T06:38:35;11.85;;;7.15;;
34317;SDS011;20582;52.196;20.952;2022-08-01T06:41:01;11.20;;;6.75;;
34317;SDS011;20582;52.196;20.952;2022-08-01T06:43:27;10.35;;;7.03;;
34317;SDS011;20582;52.196;20.952;2022-08-01T06:45:53;11.82;;;6.53;;
34317;SDS011;20582;52.196;20.952;2022-08-01T06:48:19;10.30;;;6.10;;
34317;SDS011;20582;52.196;20.952;2022-08-01T06:50:45;11.48;;;5.85;;
34317;SDS011;20582;52.196;20.952;2022-08-01T06:53:11;11.35;;;6.00;;
34317;SDS011;20582;52.196;20.952;2022-08-01T06:55:37;9.70;;;5.63;;
34317;SDS011;20582;52.196;20.952;2022-08-01T06:58:03;10.65;;;5.20;;
34317;SDS011;20582;52.196;20.952;2022-08-01T07:00:29;8.80;;;5.53;;
34317;SDS011;20582;52.196;20.952;2022-08-01T07:02:56;11.48;;;5.15;;
34317;SDS011;20582;52.196;20.952;2022-08-01T07:05:23;8.23;;;4.93;;
34317;SDS011;20582;52.196;20.952;2022-08-01T07:07:49;8.52;;;4.63;;
34317;SDS011;20582;52.196;20.952;2022-08-01T07:10:16;10.80;;;4.75;;
34317;SDS011;20582;52.196;20.952;2022-08-01T07:12:42;7.55;;;3.88;;
34317;SDS011;20582;52.196;20.952;2022-08-01T07:15:08;9.57;;;4.20;;
34317;SDS011;20582;52.196;20.952;2022-08-01T07:17:41;8.15;;;3.95;;
34317;SDS011;20582;52.196;20.952;2022-08-01T07:20:08;9.30;;;3.72;;
34317;SDS011;20582;52.196;20.952;2022-08-01T07:22:35;6.55;;;3.70;;
34317;SDS011;20582;52.196;20.952;2022-08-01T07:25:02;6.32;;;3.70;;
34317;SDS011;20582;52.196;20.952;2022-08-01T07:27:28;8.32;;;4.53;;
34317;SDS011;20582;52.196;20.952;2022-08-01T07:29:54;5.85;;;3.80;;
34317;SDS011;20582;52.196;20.952;2022-08-01T07:32:20;8.13;;;3.80;;
34317;SDS011;20582;52.196;20.952;2022-08-01T07:34:46;9.52;;;3.65;;
34317;SDS011;20582;52.196;20.952;2022-08-01T07:37:12;10.60;;;4.07;;
34317;SDS011;20582;52.196;20.952;2022-08-01T07:39:38;5.75;;;3.67;;
34317;SDS011;20582;52.196;20.952;2022-08-01T07:42:04;7.07;;;3.33;;
34317;SDS011;20582;52.196;20.952;2022-08-01T07:44:30;7.90;;;3.53;;
34317;SDS011;20582;52.196;20.952;2022-08-01T07:46:56;5.25;;;3.17;;
34317;SDS011;20582;52.196;20.952;2022-08-01T07:49:22;6.90;;;3.30;;
34317;SDS011;20582;52.196;20.952;2022-08-01T07:51:48;4.90;;;3.20;;
34317;SDS011;20582;52.196;20.952;2022-08-01T07:54:14;8.55;;;3.42;;
34317;SDS011;20582;52.196;20.952;2022-08-01T07:56:40;7.40;;;3.40;;
34317;SDS011;20582;52.196;20.952;2022-08-01T07:59:06;6.55;;;3.05;;
34317;SDS011;20582;52.196;20.952;2022-08-01T08:01:32;5.35;;;3.50;;
34317;SDS011;20582;52.196;20.952;2022-08-01T08:03:58;7.90;;;3.28;;
34317;SDS011;20582;52.196;20.952;2022-08-01T08:06:24;8.40;;;2.90;;
34317;SDS011;20582;52.196;20.952;2022-08-01T08:08:51;7.57;;;2.83;;
34317;SDS011;20582;52.196;20.952;2022-08-01T08:11:18;5.70;;;2.78;;
34317;SDS011;20582;52.196;20.952;2022-08-01T08:13:44;5.82;;;2.83;;
34317;SDS011;20582;52.196;20.952;2022-08-01T08:16:10;6.68;;;2.72;;
34317;SDS011;20582;52.196;20.952;2022-08-01T08:18:36;5.80;;;2.80;;
34317;SDS011;20582;52.196;20.952;2022-08-01T08:21:03;7.85;;;2.97;;
34317;SDS011;20582;52.196;20.952;2022-08-01T08:23:29;7.57;;;2.78;;
34317;SDS011;20582;52.196;20.952;2022-08-01T08:26:14;7.10;;;2.65;;
34317;SDS011;20582;52.196;20.952;2022-08-01T08:28:40;5.40;;;2.80;;
34317;SDS011;20582;52.196;20.952;2022-08-01T08:31:06;5.82;;;2.80;;
34317;SDS011;20582;52.196;20.952;2022-08-01T08:33:32;5.85;;;2.67;;
34317;SDS011;20582;52.196;20.952;2022-08-01T08:35:58;5.85;;;2.63;;
34317;SDS011;20582;52.196;20.952;2022-08-01T08:38:24;5.45;;;2.40;;
34317;SDS011;20582;52.196;20.952;2022-08-01T08:40:52;7.38;;;2.70;;
34317;SDS011;20582;52.196;20.952;2022-08-01T08:43:18;4.43;;;2.50;;
34317;SDS011;20582;52.196;20.952;2022-08-01T08:45:44;7.10;;;2.70;;
34317;SDS011;20582;52.196;20.952;2022-08-01T08:48:11;5.45;;;2.67;;
34317;SDS011;20582;52.196;20.952;2022-08-01T08:50:37;6.10;;;2.80;;
34317;SDS011;20582;52.196;20.952;2022-08-01T08:53:03;6.85;;;2.92;;
34317;SDS011;20582;52.196;20.952;2022-08-01T08:55:30;8.73;;;2.60;;
34317;SDS011;20582;52.196;20.952;2022-08-01T08:57:56;4.90;;;2.55;;
34317;SDS011;20582;52.196;20.952;2022-08-01T09:00:22;4.55;;;2.67;;
34317;SDS011;20582;52.196;20.952;2022-08-01T09:02:49;3.40;;;2.33;;
34317;SDS011;20582;52.196;20.952;2022-08-01T09:05:15;5.38;;;2.47;;
34317;SDS011;20582;52.196;20.952;2022-08-01T09:07:42;6.93;;;2.55;;
34317;SDS011;20582;52.196;20.952;2022-08-01T09:10:08;4.25;;;2.25;;
34317;SDS011;20582;52.196;20.952;2022-08-01T09:12:36;2.88;;;2.00;;
34317;SDS011;20582;52.196;20.952;2022-08-01T09:15:02;2.30;;;1.88;;
34317;SDS011;20582;52.196;20.952;2022-08-01T09:17:38;4.60;;;2.10;;
34317;SDS011;20582;52.196;20.952;2022-08-01T09:20:04;4.32;;;2.65;;
34317;SDS011;20582;52.196;20.952;2022-08-01T09:22:32;3.83;;;2.50;;
34317;SDS011;20582;52.196;20.952;2022-08-01T09:25:08;4.00;;;2.65;;
34317;SDS011;20582;52.196;20.952;2022-08-01T09:27:35;5.18;;;2.50;;
34317;SDS011;20582;52.196;20.952;2022-08-01T09:30:21;4.75;;;2.60;;
34317;SDS011;20582;52.196;20.952;2022-08-01T09:32:57;4.30;;;2.85;;
34317;SDS011;20582;52.196;20.952;2022-08-01T09:35:29;4.55;;;2.90;;
34317;SDS011;20582;52.196;20.952;2022-08-01T09:43:17;5.75;;;2.90;;
34317;SDS011;20582;52.196;20.952;2022-08-01T09:45:43;5.40;;;3.10;;
34317;SDS011;20582;52.196;20.952;2022-08-01T09:48:09;6.50;;;2.85;;
34317;SDS011;20582;52.196;20.952;2022-08-01T09:50:40;5.68;;;2.92;;
34317;SDS011;20582;52.196;20.952;2022-08-01T09:53:07;6.07;;;3.20;;
34317;SDS011;20582;52.196;20.952;2022-08-01T09:55:33;4.13;;;3.10;;
34317;SDS011;20582;52.196;20.952;2022-08-01T09:57:59;5.60;;;3.30;;
34317;SDS011;20582;52.196;20.952;2022-08-01T10:00:26;4.22;;;3.00;;
34317;SDS011;20582;52.196;20.952;2022-08-01T10:02:52;5.53;;;3.30;;
34317;SDS011;20582;52.196;20.952;2022-08-01T10:05:29;4.75;;;2.97;;
34317;SDS011;20582;52.196;20.952;2022-08-01T10:08:02;4.93;;;2.88;;
34317;SDS011;20582;52.196;20.952;2022-08-01T10:10:30;6.75;;;2.85;;
34317;SDS011;20582;52.196;20.952;2022-08-01T10:12:57;3.45;;;2.80;;
34317;SDS011;20582;52.196;20.952;2022-08-01T10:15:23;6.32;;;2.95;;
34317;SDS011;20582;52.196;20.952;2022-08-01T10:17:56;5.90;;;3.05;;
34317;SDS011;20582;52.196;20.952;2022-08-01T10:20:27;4.50;;;3.20;;
34317;SDS011;20582;52.196;20.952;2022-08-01T10:22:54;4.57;;;3.10;;
34317;SDS011;20582;52.196;20.952;2022-08-01T10:25:20;8.07;;;3.08;;
34317;SDS011;20582;52.196;20.952;2022-08-01T10:27:48;6.10;;;3.53;;
34317;SDS011;20582;52.196;20.952;2022-08-01T10:30:15;4.50;;;3.20;;
34317;SDS011;20582;52.196;20.952;2022-08-01T10:32:41;4.38;;;3.10;;
34317;SDS011;20582;52.196;20.952;2022-08-01T10:35:07;5.68;;;2.78;;
34317;SDS011;20582;52.196;20.952;2022-08-01T10:37:34;6.25;;;3.30;;
34317;SDS011;20582;52.196;20.952;2022-08-01T10:40:01;6.65;;;3.40;;
34317;SDS011;20582;52.196;20.952;2022-08-01T10:42:27;4.05;;;3.05;;
34317;SDS011;20582;52.196;20.952;2022-08-01T10:44:54;5.60;;;3.17;;
34317;SDS011;20582;52.196;20.952;2022-08-01T10:47:34;5.38;;;3.30;;
34317;SDS011;20582;52.196;20.952;2022-08-01T10:50:18;7.20;;;3.10;;
34317;SDS011;20582;52.196;20.952;2022-08-01T10:53:10;6.35;;;2.80;;
34317;SDS011;20582;52.196;20.952;2022-08-01T10:55:48;4.27;;;2.80;;
34317;SDS011;20582;52.196;20.952;2022-08-01T10:58:19;7.00;;;3.05;;
34317;SDS011;20582;52.196;20.952;2022-08-01T11:00:45;5.05;;;2.90;;
34317;SDS011;20582;52.196;20.952;2022-08-01T11:03:11;5.70;;;2.80;;
34317;SDS011;20582;52.196;20.952;2022-08-01T11:05:37;6.18;;;2.88;;
34317;SDS011;20582;52.196;20.952;2022-08-01T11:08:09;4.90;;;2.90;;
34317;SDS011;20582;52.196;20.952;2022-08-01T11:13:05;3.80;;;2.50;;
34317;SDS011;20582;52.196;20.952;2022-08-01T11:15:36;4.07;;;2.50;;
34317;SDS011;20582;52.196;20.952;2022-08-01T11:20:57;5.50;;;2.65;;
34317;SDS011;20582;52.196;20.952;2022-08-01T11:23:24;3.78;;;2.53;;
34317;SDS011;20582;52.196;20.952;2022-08-01T11:28:22;3.78;;;2.67;;
34317;SDS011;20582;52.196;20.952;2022-08-01T11:41:26;4.93;;;3.40;;
34317;SDS011;20582;52.196;20.952;2022-08-01T11:43:54;7.55;;;3.00;;
34317;SDS011;20582;52.196;20.952;2022-08-01T11:46:44;7.57;;;3.42;;
34317;SDS011;20582;52.196;20.952;2022-08-01T11:52:23;5.47;;;3.50;;
34317;SDS011;20582;52.196;20.952;2022-08-01T11:54:50;4.40;;;3.10;;
34317;SDS011;20582;52.196;20.952;2022-08-01T11:57:18;5.30;;;3.22;;
34317;SDS011;20582;52.196;20.952;2022-08-01T11:59:46;3.65;;;3.10;;
34317;SDS011;20582;52.196;20.952;2022-08-01T12:02:21;6.28;;;3.35;;
34317;SDS011;20582;52.196;20.952;2022-08-01T12:04:48;5.88;;;3.60;;
34317;SDS011;20582;52.196;20.952;2022-08-01T12:07:15;5.30;;;3.35;;
34317;SDS011;20582;52.196;20.952;2022-08-01T12:09:41;6.10;;;3.50;;
34317;SDS011;20582;52.196;20.952;2022-08-01T12:12:07;5.70;;;3.70;;
34317;SDS011;20582;52.196;20.952;2022-08-01T12:14:33;5.80;;;3.65;;
34317;SDS011;20582;52.196;20.952;2022-08-01T12:16:59;6.13;;;3.78;;
34317;SDS011;20582;52.196;20.952;2022-08-01T12:19:25;6.63;;;3.80;;
34317;SDS011;20582;52.196;20.952;2022-08-01T12:22:07;7.13;;;3.67;;
34317;SDS011;20582;52.196;20.952;2022-08-01T12:24:34;5.70;;;3.65;;
34317;SDS011;20582;52.196;20.952;2022-08-01T12:27:00;5.35;;;3.50;;
34317;SDS011;20582;52.196;20.952;2022-08-01T12:29:36;8.98;;;3.67;;
34317;SDS011;20582;52.196;20.952;2022-08-01T12:32:03;6.03;;;3.80;;
34317;SDS011;20582;52.196;20.952;2022-08-01T12:34:30;6.47;;;3.67;;
34317;SDS011;20582;52.196;20.952;2022-08-01T12:36:59;6.70;;;3.70;;
34317;SDS011;20582;52.196;20.952;2022-08-01T12:39:31;7.15;;;3.72;;
34317;SDS011;20582;52.196;20.952;2022-08-01T12:41:58;6.45;;;3.45;;
34317;SDS011;20582;52.196;20.952;2022-08-01T12:44:24;5.47;;;3.55;;
34317;SDS011;20582;52.196;20.952;2022-08-01T12:46:50;5.60;;;3.60;;
34317;SDS011;20582;52.196;20.952;2022-08-01T12:49:16;3.97;;;3.22;;
34317;SDS011;20582;52.196;20.952;2022-08-01T12:51:43;5.93;;;3.60;;
34317;SDS011;20582;52.196;20.952;2022-08-01T12:54:09;4.60;;;3.80;;
34317;SDS011;20582;52.196;20.952;2022-08-01T12:56:35;5.10;;;3.20;;
34317;SDS011;20582;52.196;20.952;2022-08-01T12:59:01;4.75;;;3.55;;
34317;SDS011;20582;52.196;20.952;2022-08-01T13:01:27;4.28;;;3.67;;
34317;SDS011;20582;52.196;20.952;2022-08-01T13:03:58;4.88;;;3.70;;
34317;SDS011;20582;52.196;20.952;2022-08-01T13:06:27;4.95;;;3.22;;
34317;SDS011;20582;52.196;20.952;2022-08-01T13:08:54;5.95;;;3.13;;
34317;SDS011;20582;52.196;20.952;2022-08-01T13:11:20;7.78;;;3.42;;
34317;SDS011;20582;52.196;20.952;2022-08-01T13:16:12;4.72;;;3.05;;
34317;SDS011;20582;52.196;20.952;2022-08-01T13:18:38;6.68;;;3.50;;
34317;SDS011;20582;52.196;20.952;2022-08-01T13:21:08;3.85;;;2.90;;
34317;SDS011;20582;52.196;20.952;2022-08-01T13:23:35;4.65;;;3.10;;
34317;SDS011;20582;52.196;20.952;2022-08-01T13:26:01;4.88;;;2.92;;
34317;SDS011;20582;52.196;20.952;2022-08-01T13:28:28;7.35;;;3.20;;
34317;SDS011;20582;52.196;20.952;2022-08-01T13:33:25;4.53;;;2.83;;
34317;SDS011;20582;52.196;20.952;2022-08-01T13:35:52;5.50;;;2.95;;
34317;SDS011;20582;52.196;20.952;2022-08-01T13:38:18;5.38;;;2.88;;
34317;SDS011;20582;52.196;20.952;2022-08-01T13:40:45;4.57;;;2.70;;
34317;SDS011;20582;52.196;20.952;2022-08-01T13:43:11;6.97;;;2.72;;
34317;SDS011;20582;52.196;20.952;2022-08-01T13:45:37;4.47;;;2.78;;
34317;SDS011;20582;52.196;20.952;2022-08-01T13:48:03;8.13;;;2.73;;
34317;SDS011;20582;52.196;20.952;2022-08-01T13:50:30;5.43;;;2.42;;
34317;SDS011;20582;52.196;20.952;2022-08-01T13:52:56;5.72;;;2.63;;
34317;SDS011;20582;52.196;20.952;2022-08-01T13:55:22;5.35;;;2.60;;
34317;SDS011;20582;52.196;20.952;2022-08-01T13:57:48;6.05;;;2.70;;
34317;SDS011;20582;52.196;20.952;2022-08-01T14:00:15;5.88;;;2.60;;
34317;SDS011;20582;52.196;20.952;2022-08-01T14:02:41;3.95;;;2.28;;
34317;SDS011;20582;52.196;20.952;2022-08-01T14:05:07;9.00;;;2.42;;
34317;SDS011;20582;52.196;20.952;2022-08-01T14:07:33;3.50;;;2.00;;
34317;SDS011;20582;52.196;20.952;2022-08-01T14:09:59;4.68;;;1.95;;
34317;SDS011;20582;52.196;20.952;2022-08-01T14:12:26;3.72;;;2.28;;
34317;SDS011;20582;52.196;20.952;2022-08-01T14:14:52;5.07;;;2.65;;
34317;SDS011;20582;52.196;20.952;2022-08-01T14:17:18;5.00;;;2.40;;
34317;SDS011;20582;52.196;20.952;2022-08-01T14:19:44;6.90;;;2.60;;
34317;SDS011;20582;52.196;20.952;2022-08-01T14:22:10;3.92;;;2.10;;
34317;SDS011;20582;52.196;20.952;2022-08-01T14:24:36;6.70;;;2.60;;
34317;SDS011;20582;52.196;20.952;2022-08-01T14:27:02;3.83;;;2.47;;
34317;SDS011;20582;52.196;20.952;2022-08-01T14:29:28;4.85;;;2.55;;
34317;SDS011;20582;52.196;20.952;2022-08-01T14:31:54;4.95;;;2.72;;
34317;SDS011;20582;52.196;20.952;2022-08-01T14:34:20;6.80;;;2.47;;
34317;SDS011;20582;52.196;20.952;2022-08-01T14:36:46;6.28;;;2.40;;
34317;SDS011;20582;52.196;20.952;2022-08-01T14:39:12;3.58;;;2.40;;
34317;SDS011;20582;52.196;20.952;2022-08-01T14:41:38;3.88;;;2.40;;
34317;SDS011;20582;52.196;20.952;2022-08-01T14:44:04;3.72;;;2.47;;
34317;SDS011;20582;52.196;20.952;2022-08-01T14:46:30;4.78;;;2.60;;
34317;SDS011;20582;52.196;20.952;2022-08-01T14:48:56;5.75;;;2.85;;
34317;SDS011;20582;52.196;20.952;2022-08-01T14:51:23;5.50;;;2.85;;
34317;SDS011;20582;52.196;20.952;2022-08-01T14:53:48;4.97;;;2.60;;
34317;SDS011;20582;52.196;20.952;2022-08-01T14:56:15;5.03;;;2.75;;
34317;SDS011;20582;52.196;20.952;2022-08-01T14:58:42;5.32;;;2.28;;
34317;SDS011;20582;52.196;20.952;2022-08-01T15:01:08;6.80;;;2.67;;
34317;SDS011;20582;52.196;20.952;2022-08-01T15:03:34;7.45;;;2.45;;
34317;SDS011;20582;52.196;20.952;2022-08-01T15:06:00;4.90;;;2.55;;